Time;durP1;ratioP1;P1;durP2;ratioP2;P2;SDS_P1;SDS_P2;PMS_P1;PMS_P2;Temp;Humidity;BMP_temperature;BMP_pressure;BME280_temperature;BME280_humidity;BME280_pressure;Samples;Min_cycle;Max_cycle;Signal;HPM_P1;HPM_P2
2022/04/11 00:01:02;;;;;;;22.48;10.38;;;;;;;1.56;100.00;99871.13;5025541;28;20617;-49
2022/04/11 00:03:47;;;;;;;14.23;7.88;;;;;;;1.61;100.00;99872.94;5025453;28;20049;-49
2022/04/11 00:06:31;;;;;;;13.80;5.53;;;;;;;1.61;100.00;99869.50;5026208;28;20049;-49
2022/04/11 00:09:16;;;;;;;11.20;5.43;;;;;;;1.48;100.00;99880.53;5026502;28;20368;-49
2022/04/11 00:12:01;;;;;;;7.28;4.32;;;;;;;1.53;100.00;99877.16;5025703;28;20054;-49
2022/04/11 00:14:46;;;;;;;6.38;4.10;;;;;;;1.53;100.00;99878.88;5026282;28;20057;-49
2022/04/11 00:17:30;;;;;;;8.60;4.10;;;;;;;1.45;100.00;99873.59;5024556;28;20404;-49
2022/04/11 00:20:14;;;;;;;9.55;4.32;;;;;;;1.59;100.00;99879.81;5024438;28;20068;-49
2022/04/11 00:22:59;;;;;;;9.05;4.60;;;;;;;1.61;100.00;99866.91;5025413;28;20597;-49
2022/04/11 00:25:44;;;;;;;6.97;4.43;;;;;;;1.69;100.00;99877.31;5025631;28;20053;-49
2022/04/11 00:28:28;;;;;;;10.23;5.07;;;;;;;1.74;100.00;99884.28;5025654;28;20053;-49
2022/04/11 00:31:13;;;;;;;8.57;4.00;;;;;;;1.70;100.00;99882.53;5024701;28;20049;-49
2022/04/11 00:33:57;;;;;;;8.23;4.00;;;;;;;1.61;100.00;99888.44;5025273;28;20050;-49
2022/04/11 00:36:42;;;;;;;6.28;4.07;;;;;;;1.67;100.00;99894.53;5025728;28;20045;-50
2022/04/11 00:39:26;;;;;;;7.22;3.65;;;;;;;1.64;100.00;99898.78;5025700;28;20404;-49
2022/04/11 00:42:14;;;;;;;8.40;3.80;;;;;;;1.69;100.00;99893.72;5024126;28;20050;-49
2022/04/11 00:44:59;;;;;;;10.57;4.40;;;;;;;1.52;100.00;99892.59;5025200;28;20048;-49
2022/04/11 00:47:47;;;;;;;6.50;3.00;;;;;;;1.69;100.00;99896.28;5024815;28;20095;-49
2022/04/11 00:50:32;;;;;;;6.18;3.22;;;;;;;1.69;100.00;99893.72;5025154;28;20072;-49
2022/04/11 00:53:17;;;;;;;4.90;3.00;;;;;;;1.72;100.00;99898.00;5024001;28;20045;-49
2022/04/11 00:56:01;;;;;;;6.75;2.70;;;;;;;1.71;100.00;99898.88;5023919;28;20096;-49
2022/04/11 00:58:46;;;;;;;4.72;2.13;;;;;;;1.69;100.00;99891.13;5025603;28;20045;-49
2022/04/11 01:01:31;;;;;;;5.43;2.60;;;;;;;1.71;100.00;99902.31;5029160;28;20072;-49
2022/04/11 01:04:26;;;;;;;5.28;2.58;;;;;;;1.67;100.00;99915.19;5026222;28;20052;-49
2022/04/11 01:07:10;;;;;;;6.43;3.22;;;;;;;1.63;100.00;99917.72;5028787;28;20045;-49
2022/04/11 01:09:55;;;;;;;5.28;2.78;;;;;;;1.77;100.00;99910.16;5028712;28;20061;-49
2022/04/11 01:12:41;;;;;;;5.00;3.00;;;;;;;1.73;100.00;99916.13;5029783;28;20050;-49
2022/04/11 01:15:27;;;;;;;6.68;2.85;;;;;;;1.68;100.00;99916.91;5028184;28;20057;-49
2022/04/11 01:18:11;;;;;;;5.30;2.50;;;;;;;1.61;100.00;99919.41;5028276;28;20073;-49
2022/04/11 01:20:55;;;;;;;10.05;4.20;;;;;;;1.60;100.00;99916.81;5029448;28;20042;-49
2022/04/11 01:23:39;;;;;;;9.82;3.40;;;;;;;1.59;100.00;99918.53;5027949;28;20050;-49
2022/04/11 01:26:26;;;;;;;4.05;2.45;;;;;;;1.58;100.00;99921.94;5028410;28;20091;-49
2022/04/11 01:29:12;;;;;;;10.00;2.47;;;;;;;1.54;100.00;99924.50;5027742;28;20051;-49
2022/04/11 01:31:57;;;;;;;6.38;2.65;;;;;;;1.44;100.00;99926.09;5027717;28;20049;-49
2022/04/11 01:34:41;;;;;;;8.40;2.63;;;;;;;1.44;100.00;99931.25;5027756;28;20041;-49
2022/04/11 01:37:27;;;;;;;8.13;3.38;;;;;;;1.40;100.00;99925.19;5026930;28;20049;-49
2022/04/11 01:40:11;;;;;;;3.30;1.90;;;;;;;1.35;100.00;99924.22;5027219;28;20049;-49
2022/04/11 01:42:57;;;;;;;6.75;2.40;;;;;;;1.31;100.00;99935.38;5027349;28;20056;-49
2022/04/11 01:45:42;;;;;;;5.82;2.67;;;;;;;1.27;100.00;99933.59;5028419;28;20144;-49
2022/04/11 01:48:27;;;;;;;4.47;1.83;;;;;;;1.23;100.00;99934.38;5027118;28;20660;-49
2022/04/11 01:51:13;;;;;;;4.28;1.75;;;;;;;1.19;100.00;99939.47;5028416;28;20064;-49
2022/04/11 01:53:57;;;;;;;6.85;3.30;;;;;;;1.15;100.00;99938.56;5028225;28;20057;-49
2022/04/11 01:56:41;;;;;;;7.47;2.63;;;;;;;1.08;100.00;99944.47;5028146;28;20120;-48
2022/04/11 01:59:25;;;;;;;12.68;5.20;;;;;;;1.04;100.00;99942.69;5026337;28;20053;-49
2022/04/11 02:02:09;;;;;;;11.68;4.13;;;;;;;0.96;100.00;99950.31;5027305;28;20038;-49
2022/04/11 02:04:54;;;;;;;6.05;3.20;;;;;;;0.95;100.00;99940.84;5026984;28;20052;-49
2022/04/11 02:07:39;;;;;;;7.75;2.45;;;;;;;0.85;100.00;99939.81;5027653;28;20045;-50
2022/04/11 02:10:25;;;;;;;5.35;2.28;;;;;;;0.86;100.00;99949.28;5026087;28;20053;-49
2022/04/11 02:13:09;;;;;;;6.60;2.63;;;;;;;0.77;100.00;99946.56;5025472;28;20042;-49
2022/04/11 02:15:54;;;;;;;9.10;3.00;;;;;;;0.73;100.00;99952.50;5026841;28;20053;-49
2022/04/11 02:18:38;;;;;;;7.53;3.50;;;;;;;0.69;100.00;99945.56;5028662;28;20037;-49
2022/04/11 02:21:23;;;;;;;3.45;1.98;;;;;;;0.69;100.00;99943.00;5027322;28;20046;-49
2022/04/11 02:24:07;;;;;;;7.22;2.85;;;;;;;0.55;100.00;99944.44;5026216;28;20064;-49
2022/04/11 02:26:52;;;;;;;3.60;1.77;;;;;;;0.53;100.00;99952.16;5026339;28;20049;-49
2022/04/11 02:29:36;;;;;;;5.13;2.42;;;;;;;0.49;100.00;99952.06;5027144;28;20049;-49
2022/04/11 02:32:21;;;;;;;4.20;2.05;;;;;;;0.53;100.00;99953.88;5025807;28;20040;-49
2022/04/11 02:35:07;;;;;;;7.50;2.78;;;;;;;0.53;100.00;99953.88;5026842;28;20054;-49
2022/04/11 02:37:52;;;;;;;15.18;6.32;;;;;;;0.48;100.00;99951.22;5025852;28;20064;-49
2022/04/11 02:40:37;;;;;;;26.50;9.80;;;;;;;0.40;100.00;99942.50;5026647;28;20049;-49
2022/04/11 02:43:30;;;;;;;25.92;10.05;;;;;;;0.37;100.00;99948.44;5025782;28;20038;-49
2022/04/11 02:46:21;;;;;;;12.65;5.07;;;;;;;0.32;100.00;99939.75;5028376;28;20465;-49
2022/04/11 02:49:07;;;;;;;9.52;4.43;;;;;;;0.35;100.00;99950.13;5024764;28;20057;-49
2022/04/11 02:51:59;;;;;;;8.88;3.90;;;;;;;0.32;100.00;99954.34;5025650;28;20148;-49
2022/04/11 02:54:44;;;;;;;9.23;4.22;;;;;;;0.31;100.00;99952.63;5026313;28;20049;-49
2022/04/11 02:57:29;;;;;;;8.57;3.72;;;;;;;0.29;100.00;99957.72;5027869;28;20045;-49
2022/04/11 03:00:14;;;;;;;10.80;3.80;;;;;;;0.28;100.00;99958.56;5026900;28;20481;-49
2022/04/11 03:03:10;;;;;;;6.97;3.45;;;;;;;0.29;100.00;99959.44;5025515;28;20045;-49
2022/04/11 03:05:55;;;;;;;8.77;3.92;;;;;;;0.31;100.00;99958.63;5025590;28;20053;-49
2022/04/11 03:08:39;;;;;;;10.77;4.47;;;;;;;0.39;100.00;99962.25;5026641;28;20419;-49
2022/04/11 03:11:27;;;;;;;9.00;4.10;;;;;;;0.46;100.00;99970.94;5030131;28;20082;-49
2022/04/11 03:14:12;;;;;;;5.57;2.60;;;;;;;0.58;100.00;99963.41;5025673;28;20061;-49
2022/04/11 03:16:57;;;;;;;4.85;1.98;;;;;;;0.65;100.00;99962.72;5025425;28;20107;-49
2022/04/11 03:19:42;;;;;;;5.40;2.00;;;;;;;0.75;100.00;99968.00;5026723;28;20054;-49
2022/04/11 03:22:27;;;;;;;3.92;1.60;;;;;;;0.79;100.00;99950.03;5024696;28;20052;-49
2022/04/11 03:25:18;;;;;;;4.55;2.25;;;;;;;0.77;100.00;99962.03;5026045;28;20041;-49
2022/04/11 03:28:04;;;;;;;3.65;1.42;;;;;;;0.78;100.00;99968.94;5026872;28;20049;-49
2022/04/11 03:30:51;;;;;;;4.75;1.98;;;;;;;0.77;100.00;99974.06;5025962;28;20053;-49
2022/04/11 03:33:36;;;;;;;2.55;2.05;;;;;;;0.78;100.00;99981.84;5026189;28;20041;-49
2022/04/11 03:36:22;;;;;;;5.90;1.58;;;;;;;0.82;100.00;99978.47;5025345;28;20408;-49
2022/04/11 03:39:06;;;;;;;3.42;1.50;;;;;;;0.88;100.00;99986.31;5025993;28;20053;-49
2022/04/11 03:41:53;;;;;;;2.70;1.40;;;;;;;0.94;100.00;99982.94;5026962;28;20894;-49
2022/04/11 03:44:43;;;;;;;4.95;1.95;;;;;;;1.00;100.00;99988.19;5026546;28;20041;-49
2022/04/11 03:47:33;;;;;;;4.95;1.95;;;;;;;1.07;100.00;99977.16;5026107;28;20049;-49
2022/04/11 03:50:18;;;;;;;3.25;2.33;;;;;;;1.10;100.00;99977.19;5027625;28;20053;-49
2022/04/11 03:53:03;;;;;;;8.15;3.03;;;;;;;1.20;100.00;99985.94;5026253;28;20053;-49
2022/04/11 03:55:51;;;;;;;5.43;2.60;;;;;;;1.24;100.00;99974.84;5026468;28;21437;-49
2022/04/11 03:58:36;;;;;;;5.07;2.20;;;;;;;1.30;100.00;99981.78;5026624;28;20049;-49
2022/04/11 04:01:23;;;;;;;4.20;1.58;;;;;;;1.34;100.00;99983.59;5025695;28;20499;-49
2022/04/11 04:04:08;;;;;;;6.30;2.15;;;;;;;1.39;100.00;99981.91;5026032;28;20350;-49
2022/04/11 04:06:53;;;;;;;4.38;1.83;;;;;;;1.45;100.00;99988.91;5023720;28;20049;-49
2022/04/11 04:09:38;;;;;;;5.30;1.58;;;;;;;1.49;100.00;99993.25;5024737;28;20037;-49
2022/04/11 04:12:23;;;;;;;5.00;1.90;;;;;;;1.51;100.00;99992.44;5022873;28;20484;-49
2022/04/11 04:15:15;;;;;;;6.63;2.97;;;;;;;1.55;100.00;99994.19;5022429;28;20491;-49
2022/04/11 04:18:06;;;;;;;10.48;4.35;;;;;;;1.60;100.00;99996.88;5022564;28;20372;-49
2022/04/11 04:20:51;;;;;;;7.80;3.97;;;;;;;1.62;100.00;100003.75;5022019;28;20065;-49
2022/04/11 04:23:36;;;;;;;10.25;4.55;;;;;;;1.69;100.00;100007.34;5020561;28;20050;-49
2022/04/11 04:26:20;;;;;;;8.30;2.95;;;;;;;1.66;100.00;100001.22;5024508;28;20049;-49
2022/04/11 04:29:05;;;;;;;5.63;2.97;;;;;;;1.61;100.00;100008.94;5022875;28;20041;-49
2022/04/11 04:31:54;;;;;;;8.18;3.50;;;;;;;1.72;100.00;100004.75;5021459;28;20060;-49
2022/04/11 04:34:41;;;;;;;7.90;3.40;;;;;;;1.65;100.00;100010.69;5021877;28;20053;-49
2022/04/11 04:37:25;;;;;;;7.85;4.13;;;;;;;1.72;100.00;100015.09;5021057;28;20053;-49
2022/04/11 04:40:11;;;;;;;10.98;4.45;;;;;;;1.74;100.00;100018.56;5022134;28;20049;-49
2022/04/11 04:43:00;;;;;;;8.60;4.00;;;;;;;1.83;100.00;100021.28;5022290;28;20057;-49
2022/04/11 04:45:45;;;;;;;8.60;4.80;;;;;;;1.89;100.00;100014.47;5023519;28;20053;-49
2022/04/11 04:48:45;;;;;;;6.40;3.22;;;;;;;1.96;100.00;100011.13;5022745;28;20041;-49
2022/04/11 04:51:31;;;;;;;5.10;3.28;;;;;;;2.04;100.00;100012.06;5022718;28;20057;-49
2022/04/11 04:54:20;;;;;;;7.20;3.78;;;;;;;2.16;100.00;100014.81;5022392;28;20065;-49
2022/04/11 04:57:05;;;;;;;5.53;3.30;;;;;;;2.25;100.00;100014.94;5022496;28;20107;-48
2022/04/11 04:59:51;;;;;;;8.15;4.25;;;;;;;2.34;100.00;100019.34;5021557;28;20376;-49
2022/04/11 05:02:43;;;;;;;12.15;5.57;;;;;;;2.51;100.00;100029.88;5020935;28;20053;-49
2022/04/11 05:05:32;;;;;;;14.40;4.78;;;;;;;2.43;100.00;100032.34;5020945;28;20065;-49
2022/04/11 05:08:19;;;;;;;8.93;5.60;;;;;;;2.49;100.00;100029.00;5021103;28;20512;-49
2022/04/11 05:11:03;;;;;;;9.23;5.38;;;;;;;2.49;100.00;100029.84;5020465;28;20061;-49
2022/04/11 05:13:48;;;;;;;10.48;5.95;;;;;;;2.55;100.00;100024.75;5022161;28;20489;-49
2022/04/11 05:16:34;;;;;;;8.95;5.30;;;;;;;2.49;100.00;100035.03;5022046;28;20112;-48
2022/04/11 05:19:19;;;;;;;6.97;5.63;;;;;;;2.61;100.00;100034.31;5021375;28;20045;-48
2022/04/11 05:22:06;;;;;;;8.43;5.20;;;;;;;2.70;100.00;100036.13;5021997;28;20704;-48
2022/04/11 05:24:51;;;;;;;7.07;4.90;;;;;;;2.86;100.00;100039.72;5020371;28;20049;-48
2022/04/11 05:27:36;;;;;;;9.63;5.22;;;;;;;2.99;100.00;100031.19;5021263;28;20053;-48
2022/04/11 05:30:20;;;;;;;8.75;4.32;;;;;;;3.04;100.00;100025.22;5022030;28;20046;-48
2022/04/11 05:33:07;;;;;;;11.18;5.13;;;;;;;3.08;100.00;100033.03;5023932;28;20050;-48
2022/04/11 05:35:53;;;;;;;9.63;6.25;;;;;;;3.09;100.00;100019.22;5023650;28;20057;-48
2022/04/11 05:38:38;;;;;;;12.68;6.90;;;;;;;3.16;100.00;100033.97;5025983;28;20535;-48
2022/04/11 05:41:23;;;;;;;13.45;6.45;;;;;;;3.21;100.00;100035.72;5024929;28;20057;-48
2022/04/11 05:44:11;;;;;;;11.52;5.97;;;;;;;3.35;100.00;100027.19;5025527;28;20085;-48
2022/04/11 05:47:00;;;;;;;9.82;5.75;;;;;;;3.36;100.00;100027.22;5028944;28;20029;-48
2022/04/11 05:49:51;;;;;;;9.93;5.57;;;;;;;3.41;100.00;100030.72;5028489;28;20996;-49
2022/04/11 05:52:37;;;;;;;9.57;5.47;;;;;;;3.40;100.00;100028.97;5028762;28;20060;-49
2022/04/11 05:55:23;;;;;;;10.60;6.78;;;;;;;3.56;100.00;100024.78;5027993;28;20488;-49
2022/04/11 05:58:08;;;;;;;10.88;6.00;;;;;;;3.65;100.00;100034.34;5027939;28;20061;-49
2022/04/11 06:00:53;;;;;;;10.10;4.60;;;;;;;3.65;100.00;100000.66;5027663;28;20033;-49
2022/04/11 06:03:38;;;;;;;11.05;5.25;;;;;;;4.07;100.00;100036.31;5028771;28;20050;-49
2022/04/11 06:06:23;;;;;;;10.25;5.65;;;;;;;4.51;100.00;100042.53;5027587;28;20037;-49
2022/04/11 06:09:07;;;;;;;12.93;4.72;;;;;;;4.46;100.00;100032.16;5030478;28;20045;-49
2022/04/11 06:11:54;;;;;;;10.13;4.50;;;;;;;4.59;100.00;100033.91;5027007;28;20053;-49
2022/04/11 06:14:39;;;;;;;10.70;4.35;;;;;;;4.65;100.00;100040.84;5026488;28;20411;-49
2022/04/11 06:17:25;;;;;;;12.02;5.38;;;;;;;4.62;100.00;100040.84;5028229;28;20053;-50
2022/04/11 06:20:10;;;;;;;11.68;5.75;;;;;;;4.74;100.00;100050.38;5027939;28;20051;-49
2022/04/11 06:22:55;;;;;;;7.55;4.85;;;;;;;4.79;100.00;100057.31;5023798;28;20084;-49
2022/04/11 06:25:40;;;;;;;5.88;4.05;;;;;;;4.77;100.00;100048.63;5024637;28;20049;-49
2022/04/11 06:28:24;;;;;;;7.20;3.80;;;;;;;5.02;100.00;100057.34;5016818;28;20321;-50
2022/04/11 06:31:10;;;;;;;12.40;4.80;;;;;;;5.22;100.00;100059.97;5019209;28;20107;-50
2022/04/11 06:33:54;;;;;;;7.55;4.60;;;;;;;5.19;100.00;100061.69;5022423;28;20045;-50
2022/04/11 06:36:41;;;;;;;9.20;4.68;;;;;;;5.56;100.00;100065.19;5020083;28;20061;-50
2022/04/11 06:39:25;;;;;;;9.90;4.60;;;;;;;5.45;100.00;100069.50;5022372;28;20084;-50
2022/04/11 06:42:15;;;;;;;9.30;4.07;;;;;;;5.52;100.00;100066.03;5023199;28;20053;-50
2022/04/11 06:45:04;;;;;;;6.93;3.72;;;;;;;5.62;100.00;100079.03;5022268;28;20053;-50
2022/04/11 06:47:50;;;;;;;8.20;3.70;;;;;;;5.52;100.00;100079.00;5020224;28;20057;-50
2022/04/11 06:50:35;;;;;;;8.07;5.38;;;;;;;5.60;100.00;100074.69;5021438;28;20152;-50
2022/04/11 06:53:20;;;;;;;8.60;4.38;;;;;;;5.87;100.00;100081.59;5023199;28;20045;-51
2022/04/11 06:56:04;;;;;;;10.43;4.22;;;;;;;5.83;100.00;100085.94;5024311;28;20070;-50
2022/04/11 06:58:49;;;;;;;10.52;3.85;;;;;;;5.85;100.00;100078.16;5024682;28;20045;-50
2022/04/11 07:01:33;;;;;;;12.07;4.43;;;;;;;6.08;100.00;100083.31;5026315;28;20049;-49
2022/04/11 07:04:19;;;;;;;16.58;5.70;;;;;;;6.19;100.00;100076.34;5024942;28;20053;-50
2022/04/11 07:07:03;;;;;;;9.27;3.78;;;;;;;6.29;100.00;100077.19;5024053;28;20053;-50
2022/04/11 07:09:48;;;;;;;11.32;4.18;;;;;;;6.49;100.00;100072.75;5025343;28;20061;-50
2022/04/11 07:12:39;;;;;;;9.27;3.20;;;;;;;6.34;100.00;100072.84;5025585;28;20073;-50
2022/04/11 07:15:24;;;;;;;7.65;2.72;;;;;;;6.44;100.00;100078.88;5022725;28;20049;-50
2022/04/11 07:18:08;;;;;;;10.63;3.50;;;;;;;6.36;100.00;100076.28;5024325;28;20855;-51
2022/04/11 07:20:54;;;;;;;6.10;2.70;;;;;;;6.54;100.00;100075.34;5023688;28;20756;-50
2022/04/11 07:23:38;;;;;;;10.02;3.58;;;;;;;6.64;100.00;100068.38;5023744;28;20083;-51
2022/04/11 07:26:23;;;;;;;6.88;3.63;;;;;;;6.54;100.00;100062.34;5024008;28;20061;-50
2022/04/11 07:29:07;;;;;;;9.07;2.80;;;;;;;6.57;100.00;100084.91;5024444;28;20099;-50
2022/04/11 07:31:52;;;;;;;6.88;2.80;;;;;;;6.88;100.00;100085.59;5025163;28;20463;-50
2022/04/11 07:34:36;;;;;;;6.78;2.75;;;;;;;7.11;100.00;100091.53;5025312;28;20088;-50
2022/04/11 07:37:21;;;;;;;12.13;3.40;;;;;;;7.20;100.00;100086.25;5024020;28;20038;-50
2022/04/11 07:40:07;;;;;;;6.00;2.70;;;;;;;7.49;100.00;100091.25;5023606;28;20037;-51
2022/04/11 07:42:53;;;;;;;5.72;2.30;;;;;;;7.61;100.00;100095.50;5023255;28;20049;-51
2022/04/11 07:45:37;;;;;;;5.43;2.50;;;;;;;7.53;100.00;100097.31;5025054;28;20025;-51
2022/04/11 07:48:22;;;;;;;3.72;2.30;;;;;;;7.85;100.00;100089.19;5024612;28;20049;-51
2022/04/11 07:51:06;;;;;;;10.70;5.38;;;;;;;7.96;100.00;100094.31;5023451;28;20341;-52
2022/04/11 07:53:50;;;;;;;7.55;2.63;;;;;;;8.27;100.00;100094.84;5023251;28;20599;-51
2022/04/11 07:56:34;;;;;;;60.05;27.95;;;;;;;8.35;100.00;100095.66;5023595;28;20045;-51
2022/04/11 07:59:19;;;;;;;234.10;98.60;;;;;;;8.80;100.00;100095.97;5023352;28;20049;-51
2022/04/11 08:02:03;;;;;;;13.77;7.10;;;;;;;8.90;100.00;100088.88;5024123;28;20079;-51
2022/04/11 08:04:48;;;;;;;8.10;2.17;;;;;;;8.57;100.00;100093.66;5023068;28;20427;-51
2022/04/11 08:07:35;;;;;;;5.68;2.40;;;;;;;8.75;100.00;100094.34;5021982;28;20157;-51
2022/04/11 08:10:21;;;;;;;8.32;3.72;;;;;;;9.33;100.00;100090.88;5023965;28;20045;-51
2022/04/11 08:13:06;;;;;;;8.27;3.33;;;;;;;9.81;100.00;100085.72;5019944;28;20097;-51
2022/04/11 08:15:50;;;;;;;5.38;1.90;;;;;;;9.98;100.00;100094.16;5023438;28;20074;-51
2022/04/11 08:18:35;;;;;;;3.47;1.38;;;;;;;9.89;100.00;100098.69;5024132;28;20049;-51
2022/04/11 08:21:20;;;;;;;2.47;1.05;;;;;;;10.43;100.00;100093.31;5024011;28;20128;-52
2022/04/11 08:24:05;;;;;;;5.93;2.25;;;;;;;10.84;100.00;100087.22;5023759;28;20053;-51
2022/04/11 08:26:49;;;;;;;5.90;2.10;;;;;;;10.43;100.00;100093.31;5023163;28;20049;-51
2022/04/11 08:29:34;;;;;;;9.95;4.13;;;;;;;11.41;100.00;100102.53;5020308;28;20061;-51
2022/04/11 08:32:19;;;;;;;3.33;1.38;;;;;;;11.15;100.00;100099.66;5023430;28;20053;-51
2022/04/11 08:35:05;;;;;;;6.07;1.85;;;;;;;11.40;100.00;100097.31;5024516;28;20096;-51
2022/04/11 08:37:50;;;;;;;5.97;1.50;;;;;;;11.58;100.00;100098.66;5028018;28;20045;-51
2022/04/11 08:40:35;;;;;;;3.38;1.08;;;;;;;11.81;98.04;100101.56;5027417;28;20045;-51
2022/04/11 08:43:26;;;;;;;4.88;1.55;;;;;;;11.37;99.23;100105.25;5025449;28;20053;-52
2022/04/11 08:46:13;;;;;;;5.47;1.60;;;;;;;10.89;96.19;100098.47;5026133;28;20045;-51
2022/04/11 08:49:03;;;;;;;1.85;1.23;;;;;;;11.45;93.76;100101.56;5024540;28;20556;-51
2022/04/11 08:51:48;;;;;;;3.25;0.80;;;;;;;11.89;86.09;100096.13;5027495;28;20053;-53
2022/04/11 08:54:35;;;;;;;6.22;1.35;;;;;;;12.08;82.75;100101.75;5025045;28;20042;-51
2022/04/11 08:57:22;;;;;;;3.70;1.08;;;;;;;12.30;74.81;100086.28;5025178;28;20065;-51
2022/04/11 09:00:13;;;;;;;2.58;0.70;;;;;;;11.97;74.56;100099.44;5025484;28;20115;-51
2022/04/11 09:02:57;;;;;;;3.97;0.77;;;;;;;11.38;72.87;100096.50;5024312;28;20102;-51
2022/04/11 09:05:42;;;;;;;4.30;0.82;;;;;;;11.51;73.78;100103.19;5025693;28;20099;-51
2022/04/11 09:08:41;;;;;;;2.33;1.00;;;;;;;11.94;73.03;100094.25;5025533;28;20384;-52
2022/04/11 09:11:36;;;;;;;3.20;1.75;;;;;;;11.97;73.28;100091.56;5026018;28;20049;-52
2022/04/11 09:14:26;;;;;;;16.58;11.30;;;;;;;11.49;69.42;100097.09;5025164;28;20046;-52
2022/04/11 09:17:11;;;;;;;24.90;17.80;;;;;;;10.68;68.90;100091.94;5026273;28;20443;-51
2022/04/11 09:20:07;;;;;;;54.35;34.00;;;;;;;10.48;69.87;100091.47;5021510;28;20482;-52
2022/04/11 09:22:52;;;;;;;116.43;68.22;;;;;;;10.63;73.47;100098.19;5026490;28;20040;-52
2022/04/11 09:25:36;;;;;;;87.78;60.55;;;;;;;10.78;74.66;100092.59;5026077;28;20045;-51
2022/04/11 09:28:21;;;;;;;24.48;17.35;;;;;;;10.58;73.38;100094.78;5028788;28;20057;-50
2022/04/11 09:31:06;;;;;;;4.43;3.55;;;;;;;10.56;74.18;100093.94;5029566;28;20048;-50
2022/04/11 09:33:50;;;;;;;4.38;1.13;;;;;;;10.54;73.74;100093.97;5031970;28;20053;-50
2022/04/11 09:36:51;;;;;;;10.27;1.52;;;;;;;10.70;71.82;100090.16;5033582;28;20053;-51
2022/04/11 09:39:38;;;;;;;4.07;0.80;;;;;;;10.68;71.47;100093.69;5032331;28;20046;-51
2022/04/11 09:42:31;;;;;;;3.67;1.00;;;;;;;10.38;73.04;100098.66;5033709;28;20057;-51
2022/04/11 09:45:17;;;;;;;9.60;2.50;;;;;;;10.35;72.03;100090.00;5032646;28;20045;-52
2022/04/11 09:48:03;;;;;;;28.88;13.32;;;;;;;10.34;72.55;100083.06;5032569;28;20102;-51
2022/04/11 09:50:49;;;;;;;12.32;5.07;;;;;;;10.88;71.69;100088.03;5033061;28;20562;-51
2022/04/11 09:53:35;;;;;;;23.50;10.20;;;;;;;11.00;71.81;100080.75;5033757;28;20045;-51
2022/04/11 09:56:22;;;;;;;5.38;1.95;;;;;;;11.06;70.98;100089.38;5032633;28;20050;-51
2022/04/11 09:59:06;;;;;;;4.40;1.58;;;;;;;10.92;69.93;100087.03;5032931;28;20053;-52
2022/04/11 10:01:52;;;;;;;2.97;1.08;;;;;;;11.19;69.70;100089.06;5032818;28;20037;-51
2022/04/11 10:04:38;;;;;;;2.15;0.63;;;;;;;11.33;69.29;100083.50;5032137;28;20480;-53
2022/04/11 10:07:23;;;;;;;3.45;0.98;;;;;;;11.52;69.95;100086.53;5034557;28;20569;-51
2022/04/11 10:10:08;;;;;;;2.90;0.85;;;;;;;11.81;68.03;100084.94;5027783;28;20053;-51
2022/04/11 10:12:55;;;;;;;3.50;1.25;;;;;;;11.91;67.35;100082.06;5027480;28;20103;-51
2022/04/11 10:15:43;;;;;;;2.85;0.60;;;;;;;12.31;67.31;100082.75;5033699;28;20512;-52
2022/04/11 10:18:28;;;;;;;2.10;0.52;;;;;;;12.63;66.27;100079.22;5022976;28;20471;-52
2022/04/11 10:21:14;;;;;;;6.15;1.60;;;;;;;12.46;64.96;100081.47;5019825;28;20563;-51
2022/04/11 10:24:05;;;;;;;4.78;1.70;;;;;;;12.25;63.89;100085.56;5033853;28;20058;-52
2022/04/11 10:26:55;;;;;;;4.53;1.42;;;;;;;12.63;64.47;100071.34;5006513;28;20056;-51
2022/04/11 10:29:40;;;;;;;5.30;1.05;;;;;;;12.70;63.60;100064.97;5033965;28;20049;-51
2022/04/11 10:32:27;;;;;;;7.07;1.98;;;;;;;12.66;62.65;100052.84;5031309;28;20079;-52
2022/04/11 10:35:11;;;;;;;2.95;1.50;;;;;;;12.94;64.36;100063.41;5028985;28;20045;-52
2022/04/11 10:37:55;;;;;;;5.97;1.95;;;;;;;13.37;60.48;100066.47;5030649;28;20605;-52
2022/04/11 10:40:47;;;;;;;4.30;1.10;;;;;;;13.22;60.28;100057.25;5027204;28;20099;-53
2022/04/11 10:43:31;;;;;;;4.10;1.15;;;;;;;12.46;57.70;100068.34;5031925;28;20076;-52
2022/04/11 10:46:16;;;;;;;2.80;0.90;;;;;;;12.07;59.60;100068.53;5031036;28;20041;-52
2022/04/11 10:49:05;;;;;;;2.50;0.50;;;;;;;11.41;61.43;100072.84;5032527;28;20071;-52
2022/04/11 10:52:34;;;;;;;3.95;1.25;;;;;;;12.23;61.13;100077.72;5032687;28;20053;-52
2022/04/11 10:55:22;;;;;;;2.55;0.60;;;;;;;12.85;59.50;100053.16;5032492;28;20092;-52
2022/04/11 10:58:20;;;;;;;10.25;5.53;;;;;;;13.08;57.66;100063.81;5033157;28;20065;-52
2022/04/11 11:01:05;;;;;;;2.00;0.60;;;;;;;13.47;57.28;100063.50;5022019;28;20058;-52
2022/04/11 11:04:17;;;;;;;2.35;0.70;;;;;;;13.40;55.61;100059.34;5031931;28;20060;-52
2022/04/11 11:07:24;;;;;;;2.97;0.30;;;;;;;13.38;53.88;100061.16;5033420;28;20148;-52
2022/04/11 11:10:09;;;;;;;4.00;1.77;;;;;;;13.16;52.29;100060.97;5028013;28;20073;-53
2022/04/11 11:13:27;;;;;;;1.38;0.60;;;;;;;13.20;52.77;100067.00;5027628;28;20057;-51
2022/04/11 11:16:11;;;;;;;16.25;10.13;;;;;;;12.78;53.35;100054.25;5030748;28;20041;-53
2022/04/11 11:18:55;;;;;;;4.40;1.70;;;;;;;12.84;53.83;100064.59;5027974;28;20424;-52
2022/04/11 11:21:44;;;;;;;3.53;1.35;;;;;;;13.05;55.14;100058.66;5029025;28;20305;-52
2022/04/11 11:24:28;;;;;;;12.35;9.32;;;;;;;13.37;53.27;100061.22;5028653;28;20057;-52
2022/04/11 11:27:15;;;;;;;2.90;2.33;;;;;;;13.62;53.52;100056.88;5022096;28;20079;-52
2022/04/11 11:30:07;;;;;;;74.80;49.08;;;;;;;13.76;51.75;100054.63;5016057;28;20053;-51
2022/04/11 11:32:51;;;;;;;10.68;5.47;;;;;;;14.10;51.57;100044.69;5019006;28;20049;-52
2022/04/11 11:35:44;;;;;;;218.18;118.93;;;;;;;13.90;49.04;100043.59;5016962;28;20053;-51
2022/04/11 11:38:32;;;;;;;72.47;41.03;;;;;;;14.44;50.46;100042.53;5016863;28;20050;-52
2022/04/11 11:41:16;;;;;;;4.15;2.03;;;;;;;14.64;46.90;100044.47;5015671;28;20116;-52
2022/04/11 11:44:01;;;;;;;50.10;37.70;;;;;;;14.47;47.47;100038.94;5014808;28;20057;-51
2022/04/11 11:46:51;;;;;;;10.20;9.25;;;;;;;14.73;48.46;100033.56;5014199;28;20053;-51
2022/04/11 11:49:44;;;;;;;2.08;1.10;;;;;;;14.16;44.75;100034.78;5015224;28;20058;-51
2022/04/11 11:52:28;;;;;;;2.45;1.50;;;;;;;14.13;47.48;100040.16;5016287;28;20084;-51
2022/04/11 11:55:13;;;;;;;2.55;0.70;;;;;;;13.35;47.04;100039.34;5015741;28;20050;-51
2022/04/11 11:58:04;;;;;;;3.42;1.15;;;;;;;13.07;47.11;100042.84;5016233;28;20045;-52
2022/04/11 12:00:49;;;;;;;2.60;1.70;;;;;;;12.73;47.36;100043.00;5016868;28;20409;-50
2022/04/11 12:06:37;;;;;;;6.50;3.70;;;;;;;11.55;49.34;100046.25;5012168;28;20065;-53
2022/04/11 12:09:21;;;;;;;4.70;1.52;;;;;;;11.35;50.87;100041.50;5015450;28;20049;-52
2022/04/11 12:12:08;;;;;;;5.75;3.80;;;;;;;11.21;52.02;100045.34;5031410;28;20053;-53
2022/04/11 12:15:00;;;;;;;11.48;7.15;;;;;;;11.60;53.08;100036.50;5013097;28;20049;-52
2022/04/11 12:17:47;;;;;;;9.82;5.10;;;;;;;12.26;52.38;100032.16;5015504;28;20061;-52
2022/04/11 12:20:33;;;;;;;4.45;1.85;;;;;;;12.47;49.13;100028.03;5020554;28;20160;-51
2022/04/11 12:23:18;;;;;;;2.17;1.10;;;;;;;11.66;48.95;100026.69;5015826;28;20049;-51
2022/04/11 12:26:02;;;;;;;5.93;3.53;;;;;;;11.82;50.55;100019.28;5012306;28;20152;-50
2022/04/11 12:28:46;;;;;;;5.43;2.40;;;;;;;12.22;52.79;100023.50;5009667;28;20123;-50
2022/04/11 12:31:31;;;;;;;2.92;1.55;;;;;;;12.63;48.87;100005.66;5008790;28;20049;-50
2022/04/11 12:34:16;;;;;;;2.78;1.70;;;;;;;12.70;50.48;100014.19;5018442;28;20445;-51
2022/04/11 12:37:05;;;;;;;1.85;0.88;;;;;;;12.79;48.93;100004.25;5025111;28;20041;-52
2022/04/11 12:39:54;;;;;;;1.73;0.75;;;;;;;12.35;48.08;100005.63;5023817;28;20053;-51
2022/04/11 12:42:39;;;;;;;4.93;2.75;;;;;;;12.56;49.61;99999.72;5022550;28;20138;-51
2022/04/11 12:45:23;;;;;;;6.43;3.50;;;;;;;12.91;50.36;99996.91;5026136;28;20049;-52
2022/04/11 12:48:09;;;;;;;1.70;0.98;;;;;;;12.86;48.89;100002.31;5023623;28;20059;-51
2022/04/11 12:50:53;;;;;;;3.45;1.30;;;;;;;13.16;48.19;99989.97;5010546;28;20114;-52
2022/04/11 12:53:37;;;;;;;7.93;3.70;;;;;;;13.41;47.66;99989.16;5008622;28;20074;-52
2022/04/11 12:56:22;;;;;;;2.38;1.50;;;;;;;13.80;48.73;99979.03;5006960;28;20058;-51